Time;durP1;ratioP1;P1;durP2;ratioP2;P2;SDS_P1;SDS_P2;PMS_P1;PMS_P2;Temp;Humidity;BMP_temperature;BMP_pressure;BME280_temperature;BME280_humidity;BME280_pressure;Samples;Min_cycle;Max_cycle;Signal;HPM_P1;HPM_P2
2021/10/02 00:36:54;;;;;;;31.15;19.25;;;;;;;10.65;69.07;100628.41;4992971;28;20053;-80
2021/10/02 00:45:06;;;;;;;32.45;19.58;;;;;;;10.65;69.11;100613.38;5014245;28;20060;-79
2021/10/02 00:47:45;;;;;;;37.20;21.45;;;;;;;10.63;69.10;100615.28;5013484;28;20052;-82
2021/10/02 00:50:12;;;;;;;33.17;18.08;;;;;;;10.64;69.10;100608.22;5010960;28;20049;-77
2021/10/02 00:52:43;;;;;;;40.03;18.98;;;;;;;10.65;69.04;100610.75;5011290;28;20042;-75
2021/10/02 00:55:10;;;;;;;40.22;20.85;;;;;;;10.64;69.12;100609.06;5011955;28;20049;-75
2021/10/02 00:57:37;;;;;;;39.25;20.40;;;;;;;10.64;69.13;100605.56;5011325;28;20050;-77
2021/10/02 01:00:11;;;;;;;35.28;19.58;;;;;;;10.64;69.14;100597.63;5011944;28;20069;-81
2021/10/02 01:02:44;;;;;;;33.72;20.60;;;;;;;10.66;69.30;100598.38;4977861;28;20058;-79
2021/10/02 01:05:35;;;;;;;32.03;20.42;;;;;;;10.66;69.32;100601.88;5010236;28;20050;-77
2021/10/02 01:08:14;;;;;;;34.80;19.17;;;;;;;10.67;69.18;100589.53;5010940;28;20041;-78
2021/10/02 01:10:51;;;;;;;39.45;18.33;;;;;;;10.65;69.29;100592.25;5011044;28;20486;-75
2021/10/02 01:13:25;;;;;;;42.20;21.35;;;;;;;10.64;69.37;100584.44;5009979;28;20129;-78
2021/10/02 01:16:01;;;;;;;35.95;20.25;;;;;;;10.64;69.24;100580.03;5012474;28;20050;-76
2021/10/02 01:18:33;;;;;;;39.20;20.88;;;;;;;10.66;69.17;100582.53;5013028;28;20050;-83
2021/10/02 01:21:21;;;;;;;33.47;21.10;;;;;;;10.64;69.03;100582.66;5011265;28;20559;-76
2021/10/02 01:24:00;;;;;;;32.55;18.13;;;;;;;10.65;68.93;100591.41;5011003;28;20724;-76
2021/10/02 01:26:43;;;;;;;32.92;19.73;;;;;;;10.61;69.17;100588.13;5009188;28;20104;-79
2021/10/02 01:29:16;;;;;;;35.40;19.27;;;;;;;10.59;69.02;100583.88;5010934;28;20072;-77
2021/10/02 01:31:54;;;;;;;32.42;18.25;;;;;;;10.56;69.19;100570.91;5011284;28;20046;-77
2021/10/02 01:34:28;;;;;;;34.10;17.33;;;;;;;10.55;69.13;100574.50;5010162;28;20056;-75
2021/10/02 01:37:05;;;;;;;36.17;19.35;;;;;;;10.54;69.18;100567.53;5011037;28;20089;-75
2021/10/02 01:47:55;;;;;;;34.55;18.30;;;;;;;10.48;69.10;100574.91;4967904;28;20054;-76
2021/10/02 01:50:25;;;;;;;36.22;19.63;;;;;;;10.46;69.19;100571.53;4971319;28;20047;-82
2021/10/02 01:52:55;;;;;;;38.90;20.10;;;;;;;10.46;69.09;100560.09;4967313;28;20053;-77
2021/10/02 01:55:23;;;;;;;35.25;20.08;;;;;;;10.43;69.36;100563.81;4967977;28;20198;-76
2021/10/02 01:57:57;;;;;;;40.38;21.67;;;;;;;10.45;69.25;100566.34;4969137;28;20097;-76
2021/10/02 02:00:27;;;;;;;37.47;20.38;;;;;;;10.44;69.34;100565.50;4968545;28;20134;-75
2021/10/02 02:02:58;;;;;;;38.22;20.27;;;;;;;10.47;69.37;100554.72;4967467;28;20054;-76
2021/10/02 02:05:28;;;;;;;41.38;20.40;;;;;;;10.53;69.30;100561.38;4953362;28;20049;-77
2021/10/02 02:08:01;;;;;;;46.13;22.40;;;;;;;10.61;69.26;100560.88;4967128;28;20050;-76
2021/10/02 02:10:28;;;;;;;37.65;19.20;;;;;;;10.72;68.89;100566.28;4966460;28;20130;-76
2021/10/02 02:13:00;;;;;;;46.13;21.83;;;;;;;10.85;68.96;100561.84;4967671;28;20157;-74
2021/10/02 02:15:32;;;;;;;51.25;25.23;;;;;;;10.96;68.79;100554.97;4967822;28;20051;-75
2021/10/02 02:18:01;;;;;;;49.45;23.08;;;;;;;11.09;68.51;100551.38;4967189;28;20408;-75
2021/10/02 02:20:32;;;;;;;48.83;24.75;;;;;;;11.18;68.64;100551.66;5007522;28;20060;-76
2021/10/02 02:23:00;;;;;;;51.13;24.27;;;;;;;11.26;68.21;100555.47;5008489;28;20056;-75
2021/10/02 02:25:27;;;;;;;47.85;25.13;;;;;;;11.34;68.36;100546.16;5008556;28;20046;-75
2021/10/02 02:27:55;;;;;;;43.22;22.60;;;;;;;11.41;68.22;100550.88;5016837;28;20095;-75
2021/10/02 02:30:22;;;;;;;48.13;23.70;;;;;;;11.46;68.29;100547.94;5028554;28;20060;-75
2021/10/02 02:32:52;;;;;;;41.90;23.15;;;;;;;11.51;68.27;100540.50;5029074;28;20056;-80
2021/10/02 02:35:20;;;;;;;45.60;24.20;;;;;;;11.52;68.30;100533.41;5031567;28;20056;-79
2021/10/02 02:37:47;;;;;;;48.13;22.08;;;;;;;11.58;68.25;100538.28;5031058;28;20080;-79
2021/10/02 02:40:15;;;;;;;41.58;22.38;;;;;;;11.64;68.24;100533.38;5032601;28;20046;-78
2021/10/02 02:42:42;;;;;;;42.00;21.92;;;;;;;11.67;68.33;100533.16;5033167;28;20041;-82
2021/10/02 02:45:12;;;;;;;41.67;22.23;;;;;;;11.69;68.33;100537.50;5032102;28;20057;-79
2021/10/02 02:47:47;;;;;;;39.92;19.27;;;;;;;11.72;68.34;100537.25;5030738;28;20076;-83
2021/10/02 02:50:22;;;;;;;35.03;18.67;;;;;;;11.73;68.27;100544.25;5031944;28;20107;-81
2021/10/02 02:52:58;;;;;;;39.55;22.20;;;;;;;11.75;68.10;100539.69;5031364;28;20045;-79
2021/10/02 02:55:27;;;;;;;37.90;18.50;;;;;;;11.78;68.05;100544.75;5031525;28;20049;-82
2021/10/02 02:58:00;;;;;;;32.25;18.27;;;;;;;11.79;68.06;100533.19;5030167;28;20056;-79
2021/10/02 03:00:27;;;;;;;35.53;19.10;;;;;;;11.78;68.08;100534.19;5032664;28;20405;-81
2021/10/02 03:03:01;;;;;;;39.78;21.33;;;;;;;11.81;67.90;100534.81;5032242;28;20049;-78
2021/10/02 03:05:30;;;;;;;31.00;18.92;;;;;;;11.85;67.88;100528.31;5032077;28;20042;-81
2021/10/02 03:08:02;;;;;;;36.95;17.95;;;;;;;11.89;67.72;100533.41;5031143;28;20045;-81
2021/10/02 03:10:30;;;;;;;33.65;18.38;;;;;;;11.84;67.68;100526.63;5030277;28;20558;-76
2021/10/02 03:13:03;;;;;;;26.08;15.65;;;;;;;11.82;67.88;100533.81;5030915;28;20046;-78
2021/10/02 03:15:31;;;;;;;34.47;18.58;;;;;;;11.80;67.71;100533.09;5030641;28;20060;-80
2021/10/02 03:17:59;;;;;;;24.95;15.50;;;;;;;11.75;67.67;100529.09;5031048;28;20050;-81
2021/10/02 03:20:30;;;;;;;34.15;16.92;;;;;;;11.71;67.94;100520.53;5031805;28;20055;-81
2021/10/02 03:22:58;;;;;;;37.53;17.65;;;;;;;11.73;67.71;100520.44;5032629;28;20339;-77
2021/10/02 03:25:27;;;;;;;30.85;17.17;;;;;;;11.78;67.69;100528.88;5033021;28;20045;-80
2021/10/02 03:27:56;;;;;;;31.30;15.68;;;;;;;11.74;67.53;100507.09;5034708;28;20045;-82
2021/10/02 03:30:25;;;;;;;31.55;16.35;;;;;;;11.72;67.70;100502.84;5032115;28;20052;-81
2021/10/02 03:32:54;;;;;;;29.30;15.77;;;;;;;11.72;67.66;100508.16;5033207;28;20059;-83
2021/10/02 03:35:21;;;;;;;34.25;16.73;;;;;;;11.73;67.69;100507.19;5045346;28;20328;-77
2021/10/02 03:37:51;;;;;;;30.40;16.83;;;;;;;11.72;67.63;100509.00;5047881;28;20164;-78
2021/10/02 03:40:19;;;;;;;31.27;15.43;;;;;;;11.70;67.60;100505.63;5049131;28;20171;-78
2021/10/02 03:42:49;;;;;;;26.92;14.43;;;;;;;11.70;67.49;100510.06;5046931;28;20073;-76
2021/10/02 03:45:17;;;;;;;37.78;18.00;;;;;;;11.67;67.57;100501.41;5048348;28;20049;-78
2021/10/02 03:47:45;;;;;;;31.45;17.27;;;;;;;11.68;67.55;100502.25;5034463;28;20045;-75
2021/10/02 03:50:12;;;;;;;27.00;14.95;;;;;;;11.70;67.38;100510.91;5033175;28;20060;-75
2021/10/02 03:52:43;;;;;;;29.23;15.00;;;;;;;11.75;67.35;100505.28;5036269;28;20053;-80
2021/10/02 03:55:14;;;;;;;31.15;16.02;;;;;;;11.77;67.38;100503.38;5034755;28;20121;-75
2021/10/02 03:57:41;;;;;;;36.03;17.35;;;;;;;11.71;67.30;100501.19;5033793;28;20051;-82
2021/10/02 04:00:11;;;;;;;27.23;13.40;;;;;;;11.66;67.58;100501.50;5030798;28;20056;-76
2021/10/02 04:02:38;;;;;;;32.30;16.17;;;;;;;11.64;67.50;100501.63;5032521;28;20054;-74
2021/10/02 04:05:06;;;;;;;28.23;16.52;;;;;;;11.65;67.55;100507.78;5030635;28;20050;-77
2021/10/02 04:07:33;;;;;;;30.15;15.60;;;;;;;11.59;67.77;100497.63;5029463;28;20065;-76
2021/10/02 04:10:00;;;;;;;32.67;15.02;;;;;;;11.51;68.22;100500.84;5030222;28;20055;-77
2021/10/02 04:12:29;;;;;;;30.70;15.18;;;;;;;11.53;68.12;100488.34;5028869;28;20069;-77
2021/10/02 04:14:56;;;;;;;39.97;17.33;;;;;;;11.50;68.12;100491.19;5029497;28;20108;-82
2021/10/02 04:17:24;;;;;;;36.20;17.45;;;;;;;11.53;68.17;100483.03;5039265;28;20071;-81
2021/10/02 04:19:51;;;;;;;33.53;17.02;;;;;;;11.54;68.24;100484.75;5032728;28;20045;-75
2021/10/02 04:22:18;;;;;;;27.77;12.15;;;;;;;11.58;68.03;100486.19;5028047;28;20596;-75
2021/10/02 04:24:45;;;;;;;33.10;14.25;;;;;;;11.57;68.14;100484.50;5027811;28;20697;-80
2021/10/02 04:27:12;;;;;;;38.08;17.73;;;;;;;11.59;68.11;100481.75;5028995;28;20050;-77
2021/10/02 04:29:41;;;;;;;32.55;15.82;;;;;;;11.63;67.92;100488.50;5030472;28;20065;-77
2021/10/02 04:32:08;;;;;;;28.27;15.27;;;;;;;11.66;68.13;100480.34;5030529;28;20045;-80
2021/10/02 04:34:36;;;;;;;38.45;16.42;;;;;;;11.60;68.33;100472.88;5027751;28;20052;-76
2021/10/02 04:37:03;;;;;;;32.67;14.18;;;;;;;11.78;67.79;100483.91;5027924;28;20057;-76
2021/10/02 04:39:30;;;;;;;26.45;15.25;;;;;;;11.83;67.64;100487.06;5030627;28;20060;-74
2021/10/02 04:41:57;;;;;;;31.50;16.00;;;;;;;11.86;67.42;100476.22;5032032;28;20046;-76
2021/10/02 04:44:25;;;;;;;34.30;15.80;;;;;;;11.88;67.45;100474.28;5026357;28;20054;-75
2021/10/02 04:46:56;;;;;;;33.83;16.00;;;;;;;11.92;67.32;100478.47;5023743;28;20057;-74
2021/10/02 04:49:23;;;;;;;43.25;18.17;;;;;;;11.92;67.32;100478.47;5026660;28;20049;-75
2021/10/02 04:51:52;;;;;;;30.60;15.52;;;;;;;11.97;67.26;100484.22;5027288;28;20045;-75
2021/10/02 04:54:19;;;;;;;34.67;15.05;;;;;;;12.00;67.25;100486.66;5025884;28;20050;-81
2021/10/02 04:56:47;;;;;;;28.63;14.60;;;;;;;12.04;67.11;100480.16;5030174;28;20524;-74
2021/10/02 04:59:14;;;;;;;29.05;14.05;;;;;;;12.08;67.13;100485.22;5025920;28;20049;-75
2021/10/02 05:01:41;;;;;;;30.92;14.57;;;;;;;12.07;67.09;100480.91;5027223;28;20192;-76
2021/10/02 05:04:10;;;;;;;29.70;16.48;;;;;;;12.10;67.09;100476.25;5030874;28;20071;-78
2021/10/02 05:06:38;;;;;;;29.77;15.35;;;;;;;12.14;67.12;100477.69;5028145;28;20064;-75
2021/10/02 05:09:06;;;;;;;27.80;13.35;;;;;;;12.20;66.90;100481.66;5027655;28;20056;-76
2021/10/02 05:11:33;;;;;;;29.00;15.05;;;;;;;12.21;66.80;100473.63;5027185;28;20041;-74
2021/10/02 05:14:01;;;;;;;32.70;14.48;;;;;;;12.22;66.84;100469.16;5028690;28;20041;-74
2021/10/02 05:16:28;;;;;;;30.83;15.43;;;;;;;12.24;66.82;100468.09;5027036;28;20057;-75
2021/10/02 05:18:55;;;;;;;26.42;14.50;;;;;;;12.24;66.99;100476.03;5034715;28;20064;-76
2021/10/02 05:21:24;;;;;;;28.35;14.98;;;;;;;12.32;66.86;100466.66;5033553;28;20061;-77
2021/10/02 05:23:52;;;;;;;30.30;17.48;;;;;;;12.33;66.79;100465.69;5029970;28;20617;-76
2021/10/02 05:26:19;;;;;;;32.35;18.10;;;;;;;12.32;66.89;100467.50;5031098;28;20063;-77
2021/10/02 05:28:46;;;;;;;28.95;15.88;;;;;;;12.38;66.89;100468.84;5032701;28;20045;-75
2021/10/02 05:31:13;;;;;;;25.05;14.45;;;;;;;12.43;66.70;100475.47;5032149;28;20049;-76
2021/10/02 05:33:40;;;;;;;29.90;14.30;;;;;;;12.49;66.58;100462.72;5033127;28;20049;-76
2021/10/02 05:36:07;;;;;;;27.15;14.90;;;;;;;12.50;66.77;100475.00;5030228;28;20108;-76
2021/10/02 05:38:36;;;;;;;24.70;12.93;;;;;;;12.55;66.76;100476.34;5033642;28;20060;-75
2021/10/02 05:41:03;;;;;;;29.85;16.02;;;;;;;12.60;66.55;100479.47;5030385;28;20065;-75
2021/10/02 05:43:30;;;;;;;23.95;12.93;;;;;;;12.66;66.41;100475.50;5030369;28;20056;-81
2021/10/02 05:45:57;;;;;;;31.10;15.55;;;;;;;12.69;66.27;100472.59;5028351;28;20049;-77
2021/10/02 05:48:26;;;;;;;25.95;15.57;;;;;;;12.70;66.40;100469.00;5031581;28;20053;-78
2021/10/02 05:50:53;;;;;;;26.02;15.07;;;;;;;12.76;66.21;100468.50;5032026;28;20057;-75
2021/10/02 05:53:19;;;;;;;21.45;12.85;;;;;;;12.88;66.22;100476.47;5031334;28;20060;-76
2021/10/02 05:55:48;;;;;;;26.00;13.55;;;;;;;12.89;65.96;100472.84;5032483;28;20373;-79
2021/10/02 05:58:15;;;;;;;24.77;13.48;;;;;;;12.92;66.10;100476.09;5030582;28;20080;-76
2021/10/02 06:00:44;;;;;;;27.17;14.55;;;;;;;12.99;65.90;100473.81;5030597;28;20422;-81
2021/10/02 06:03:11;;;;;;;23.40;13.07;;;;;;;13.04;65.79;100471.66;5031123;28;20061;-77
2021/10/02 06:05:38;;;;;;;19.73;13.25;;;;;;;13.05;65.74;100472.47;5029844;28;20053;-76
2021/10/02 06:08:06;;;;;;;19.27;11.32;;;;;;;13.07;65.68;100471.41;5031749;28;20053;-78
2021/10/02 06:10:33;;;;;;;20.85;12.38;;;;;;;13.09;65.55;100469.47;5033938;28;20056;-81
2021/10/02 06:13:01;;;;;;;19.40;10.55;;;;;;;13.11;65.64;100470.19;5030432;28;20140;-79
2021/10/02 06:15:29;;;;;;;22.08;12.32;;;;;;;13.15;65.63;100478.75;5034196;28;20079;-75
2021/10/02 06:17:56;;;;;;;19.65;12.60;;;;;;;13.18;65.41;100467.88;5032406;28;20132;-80
2021/10/02 06:20:24;;;;;;;18.63;11.00;;;;;;;13.25;65.33;100469.06;5031614;28;20050;-77
2021/10/02 06:22:52;;;;;;;14.50;9.65;;;;;;;13.26;65.42;100461.97;5032832;28;20309;-75
2021/10/02 06:25:19;;;;;;;17.90;11.15;;;;;;;13.28;65.50;100468.81;5032164;28;20524;-77
2021/10/02 06:27:47;;;;;;;17.38;10.98;;;;;;;13.34;65.31;100463.06;5031149;28;20052;-79
2021/10/02 06:30:17;;;;;;;15.90;10.73;;;;;;;13.33;65.28;100461.38;5031773;28;20449;-83
2021/10/02 06:32:45;;;;;;;18.00;11.43;;;;;;;13.30;65.23;100461.59;5035000;28;20493;-77
2021/10/02 06:35:12;;;;;;;13.82;9.80;;;;;;;13.28;65.29;100457.38;5032044;28;20053;-82
2021/10/02 06:37:39;;;;;;;17.38;9.88;;;;;;;13.24;65.31;100464.75;5031540;28;20072;-76
2021/10/02 06:40:08;;;;;;;17.60;10.48;;;;;;;13.32;65.35;100457.03;5030407;28;20113;-80
2021/10/02 06:42:36;;;;;;;13.70;10.30;;;;;;;13.40;65.42;100451.13;5038857;28;20038;-81
2021/10/02 06:45:08;;;;;;;16.10;9.95;;;;;;;13.45;65.15;100454.25;5033854;28;20050;-85
2021/10/02 06:47:37;;;;;;;18.02;10.00;;;;;;;13.60;64.67;100456.63;5030370;28;20055;-85
2021/10/02 06:50:05;;;;;;;16.73;11.27;;;;;;;13.75;64.32;100445.56;5030326;28;20049;-75
2021/10/02 06:52:33;;;;;;;15.68;10.25;;;;;;;13.75;64.04;100442.91;5029437;28;20046;-76
2021/10/02 06:55:00;;;;;;;16.73;11.57;;;;;;;13.73;64.20;100442.19;5029314;28;20045;-75
2021/10/02 06:57:28;;;;;;;14.68;10.32;;;;;;;13.84;64.22;100446.59;5027031;28;20080;-75
2021/10/02 06:59:58;;;;;;;17.20;10.73;;;;;;;14.00;63.81;100442.69;5031132;28;20046;-80
2021/10/02 07:02:25;;;;;;;16.83;10.32;;;;;;;14.14;63.54;100451.16;5032605;28;20641;-79
2021/10/02 07:04:54;;;;;;;14.35;10.15;;;;;;;14.28;63.38;100446.50;5032824;28;20049;-81
2021/10/02 07:07:21;;;;;;;15.77;10.30;;;;;;;14.42;63.18;100445.31;5034779;28;20486;-82
2021/10/02 07:09:48;;;;;;;15.90;10.65;;;;;;;14.61;62.55;100449.94;5032357;28;20054;-81
2021/10/02 07:12:16;;;;;;;15.65;10.50;;;;;;;14.77;62.45;100446.81;5031851;28;20091;-75
2021/10/02 07:14:44;;;;;;;16.30;10.30;;;;;;;14.93;62.00;100449.78;5030275;28;20041;-74
2021/10/02 07:17:12;;;;;;;14.90;10.07;;;;;;;15.07;61.71;100452.09;5027200;28;20049;-76
2021/10/02 07:19:39;;;;;;;13.95;9.75;;;;;;;15.19;61.53;100454.63;5025374;28;20049;-75
2021/10/02 07:22:08;;;;;;;13.93;9.07;;;;;;;15.36;61.21;100440.66;5024392;28;20556;-76
2021/10/02 07:24:35;;;;;;;14.13;8.93;;;;;;;15.49;60.69;100449.22;5025044;28;20045;-75
2021/10/02 07:27:08;;;;;;;13.52;10.02;;;;;;;15.57;60.81;100450.34;5026833;28;20042;-75
2021/10/02 07:29:36;;;;;;;17.10;10.30;;;;;;;15.69;60.35;100451.91;5026953;28;20048;-75
2021/10/02 07:32:05;;;;;;;15.15;9.70;;;;;;;15.66;60.22;100450.38;5019063;28;20052;-74
2021/10/02 07:34:32;;;;;;;17.05;10.70;;;;;;;15.74;60.19;100454.16;5022700;28;20179;-75
2021/10/02 07:36:59;;;;;;;13.52;10.27;;;;;;;15.90;59.76;100446.47;5025865;28;20136;-75
2021/10/02 07:39:27;;;;;;;15.00;10.68;;;;;;;15.98;59.52;100451.09;5021130;28;20076;-75
2021/10/02 07:41:55;;;;;;;12.25;9.52;;;;;;;16.00;59.30;100447.28;5019163;28;20596;-77
2021/10/02 07:44:28;;;;;;;12.98;10.65;;;;;;;16.11;59.33;100450.78;5024852;28;20055;-75
2021/10/02 07:46:57;;;;;;;16.33;10.63;;;;;;;16.19;59.21;100441.09;5028144;28;20067;-74
2021/10/02 07:49:27;;;;;;;13.55;9.93;;;;;;;16.31;58.87;100449.75;5016090;28;20124;-74
2021/10/02 07:51:56;;;;;;;13.82;9.70;;;;;;;16.44;58.41;100450.31;5020731;28;20041;-75
2021/10/02 07:54:27;;;;;;;15.13;9.73;;;;;;;16.52;58.18;100454.91;5009371;28;20065;-75
2021/10/02 07:56:55;;;;;;;17.13;10.05;;;;;;;16.39;58.25;100452.56;5003220;28;20046;-77
2021/10/02 07:59:22;;;;;;;11.60;9.55;;;;;;;16.39;58.24;100451.72;5015092;28;20401;-74
2021/10/02 08:01:50;;;;;;;12.70;9.35;;;;;;;16.30;58.28;100448.09;5023387;28;20084;-74
2021/10/02 08:04:16;;;;;;;13.15;9.50;;;;;;;16.20;58.57;100452.59;5016895;28;20056;-73
2021/10/02 08:06:43;;;;;;;14.57;10.60;;;;;;;16.19;58.64;100451.75;5014464;28;20041;-74
2021/10/02 08:09:11;;;;;;;12.55;9.75;;;;;;;16.20;58.42;100445.44;5017914;28;20050;-73
2021/10/02 08:11:39;;;;;;;13.55;9.00;;;;;;;16.34;58.14;100453.97;5014648;28;20591;-75
2021/10/02 08:14:08;;;;;;;13.80;9.75;;;;;;;16.44;57.81;100444.97;4984224;28;20041;-76
2021/10/02 08:16:37;;;;;;;13.18;8.30;;;;;;;16.59;57.52;100442.69;5015969;28;20042;-74
2021/10/02 08:19:07;;;;;;;15.50;11.10;;;;;;;16.69;57.33;100448.00;5017402;28;20076;-78
2021/10/02 08:21:40;;;;;;;21.50;8.75;;;;;;;16.69;57.32;100440.00;5017283;28;20042;-74
2021/10/02 08:24:08;;;;;;;12.15;9.15;;;;;;;16.77;56.95;100436.59;5021884;28;20049;-76
2021/10/02 08:26:35;;;;;;;13.20;9.15;;;;;;;16.86;57.13;100434.91;5016816;28;20045;-78
2021/10/02 08:29:04;;;;;;;14.15;9.90;;;;;;;17.05;56.84;100436.63;5018990;28;20045;-74
2021/10/02 08:31:41;;;;;;;15.50;10.25;;;;;;;17.18;56.15;100431.78;5023365;28;20100;-75
2021/10/02 08:34:07;;;;;;;13.00;8.60;;;;;;;17.27;56.37;100430.00;5022133;28;20038;-76
2021/10/02 08:36:34;;;;;;;14.55;8.60;;;;;;;17.39;56.01;100434.16;5022366;28;20401;-72
2021/10/02 08:39:01;;;;;;;12.02;9.05;;;;;;;17.40;55.69;100427.84;5021722;28;20049;-73
2021/10/02 08:41:29;;;;;;;10.75;7.68;;;;;;;17.44;55.53;100428.38;5022355;28;20045;-74
2021/10/02 08:43:57;;;;;;;13.82;9.57;;;;;;;17.47;55.27;100420.06;5022955;28;20123;-74
2021/10/02 08:46:27;;;;;;;13.15;9.30;;;;;;;17.49;55.41;100418.06;5023912;28;20045;-74
2021/10/02 08:49:25;;;;;;;12.50;7.78;;;;;;;17.62;55.03;100413.19;5023673;28;20595;-74
2021/10/02 08:51:53;;;;;;;12.88;9.32;;;;;;;17.71;54.74;100412.25;5028636;28;20057;-73
2021/10/02 08:54:20;;;;;;;12.55;8.43;;;;;;;17.81;54.31;100414.00;5025705;28;20073;-76
2021/10/02 08:56:50;;;;;;;20.35;8.30;;;;;;;17.81;54.38;100400.63;5034097;28;20056;-77
2021/10/02 08:59:17;;;;;;;11.18;8.20;;;;;;;17.76;54.62;100401.13;5032953;28;20059;-78
2021/10/02 09:01:47;;;;;;;13.75;9.23;;;;;;;17.72;54.47;100397.09;5029830;28;20046;-77
2021/10/02 09:04:14;;;;;;;10.98;8.63;;;;;;;17.73;54.42;100388.91;5031552;28;20052;-75
2021/10/02 09:06:41;;;;;;;11.60;7.90;;;;;;;17.75;54.01;100391.41;5027881;28;20054;-76
2021/10/02 09:09:09;;;;;;;11.43;7.00;;;;;;;17.81;54.02;100392.63;5029868;28;20486;-74
2021/10/02 09:11:37;;;;;;;9.90;8.10;;;;;;;17.90;53.78;100394.44;5029144;28;20125;-76
2021/10/02 09:14:04;;;;;;;10.90;6.97;;;;;;;18.14;53.12;100391.91;5029248;28;20060;-73
2021/10/02 09:16:31;;;;;;;10.98;7.03;;;;;;;18.35;53.07;100393.38;5027279;28;20052;-81
2021/10/02 09:19:02;;;;;;;10.35;7.82;;;;;;;18.30;53.08;100383.16;5035971;28;20059;-75
2021/10/02 09:21:30;;;;;;;10.95;7.13;;;;;;;18.15;53.12;100377.56;5035704;28;20046;-76
2021/10/02 09:23:59;;;;;;;11.85;7.47;;;;;;;18.06;53.39;100373.16;5032529;28;20046;-74
2021/10/02 09:26:44;;;;;;;12.75;8.20;;;;;;;18.27;53.26;100366.59;5026319;28;20052;-77
2021/10/02 09:29:13;;;;;;;13.95;7.82;;;;;;;18.36;53.06;100381.69;5021713;28;20099;-77
2021/10/02 09:31:49;;;;;;;10.50;7.22;;;;;;;18.44;53.13;100376.38;5029849;28;20049;-79
2021/10/02 09:34:25;;;;;;;11.13;7.45;;;;;;;18.60;53.00;100380.97;5032568;28;20188;-75
2021/10/02 09:36:53;;;;;;;13.20;9.57;;;;;;;18.73;52.37;100373.34;5041753;28;20043;-78
2021/10/02 09:39:24;;;;;;;10.23;7.65;;;;;;;18.85;52.49;100384.63;5036056;28;20041;-74
2021/10/02 09:41:53;;;;;;;12.73;7.80;;;;;;;19.07;52.18;100367.13;5014989;28;20046;-74
2021/10/02 09:44:24;;;;;;;9.88;7.95;;;;;;;19.23;51.55;100377.03;5037542;28;20140;-74
2021/10/02 09:46:53;;;;;;;12.73;7.82;;;;;;;19.42;51.10;100373.19;5031652;28;20064;-73
2021/10/02 09:49:20;;;;;;;11.05;7.70;;;;;;;19.46;50.88;100379.91;5043956;28;20403;-74
2021/10/02 09:51:49;;;;;;;12.15;7.45;;;;;;;19.47;51.15;100378.06;5039945;28;20085;-74
2021/10/02 09:54:37;;;;;;;11.50;8.75;;;;;;;19.66;50.88;100372.38;5041144;28;20057;-74
2021/10/02 09:57:11;;;;;;;10.27;8.65;;;;;;;19.86;50.52;100377.41;5036012;28;20042;-72
2021/10/02 09:59:38;;;;;;;12.15;9.27;;;;;;;19.94;50.00;100376.56;5038137;28;20051;-77
2021/10/02 10:02:16;;;;;;;11.00;7.80;;;;;;;19.94;50.07;100369.38;5040436;28;20063;-74
2021/10/02 10:04:53;;;;;;;9.65;8.60;;;;;;;19.90;49.75;100369.84;5039010;28;20059;-73
2021/10/02 10:07:23;;;;;;;11.88;8.43;;;;;;;19.89;49.87;100368.19;5043075;28;20041;-76
2021/10/02 10:10:05;;;;;;;10.27;8.38;;;;;;;19.93;49.74;100366.84;5048872;28;20030;-74
2021/10/02 10:12:34;;;;;;;10.95;7.57;;;;;;;19.98;49.67;100359.13;5044718;28;20076;-75
2021/10/02 10:15:01;;;;;;;14.32;8.93;;;;;;;19.98;49.57;100348.41;5031415;28;20042;-74
2021/10/02 10:17:32;;;;;;;12.65;8.65;;;;;;;20.08;49.43;100350.91;5029673;28;20052;-76
2021/10/02 10:20:10;;;;;;;11.32;8.60;;;;;;;20.22;49.27;100355.56;5010609;28;20049;-77
2021/10/02 10:22:39;;;;;;;12.48;7.85;;;;;;;20.24;48.89;100349.03;5039721;28;20302;-80
2021/10/02 10:25:09;;;;;;;10.25;7.90;;;;;;;20.29;48.83;100345.81;5036737;28;20069;-76
2021/10/02 10:27:39;;;;;;;12.50;7.57;;;;;;;20.21;49.26;100343.19;5032978;28;20058;-79
2021/10/02 10:30:21;;;;;;;14.38;9.23;;;;;;;20.27;49.02;100342.47;5037577;28;20076;-74
2021/10/02 10:32:58;;;;;;;14.00;9.27;;;;;;;20.44;49.28;100343.28;5039000;28;20073;-80
2021/10/02 10:35:31;;;;;;;10.73;7.80;;;;;;;20.62;48.81;100337.69;5030217;28;20121;-76
2021/10/02 10:38:03;;;;;;;12.13;7.82;;;;;;;20.68;48.83;100339.66;5031999;28;20049;-76
2021/10/02 10:40:30;;;;;;;11.43;8.65;;;;;;;20.87;48.35;100332.19;5025344;28;20069;-73
2021/10/02 10:42:57;;;;;;;9.80;7.80;;;;;;;21.43;47.40;100326.59;5026686;28;20052;-76
2021/10/02 10:45:27;;;;;;;12.38;8.45;;;;;;;21.77;46.40;100321.63;5032499;28;20045;-80
2021/10/02 10:47:56;;;;;;;12.45;8.93;;;;;;;21.71;46.35;100314.28;5039204;28;20043;-78
2021/10/02 10:50:29;;;;;;;12.70;8.82;;;;;;;21.78;46.50;100322.47;5035159;28;20092;-80
2021/10/02 10:53:02;;;;;;;12.57;8.07;;;;;;;21.73;46.03;100319.47;5033024;28;20051;-73
2021/10/02 10:55:29;;;;;;;11.75;8.48;;;;;;;21.62;46.35;100319.94;5027566;28;20675;-74
2021/10/02 10:57:58;;;;;;;13.38;9.20;;;;;;;21.72;46.40;100320.50;5032309;28;20484;-77
2021/10/02 11:00:42;;;;;;;12.93;8.63;;;;;;;21.88;46.17;100320.34;5032930;28;20052;-75
2021/10/02 11:03:10;;;;;;;13.13;9.35;;;;;;;22.07;45.56;100321.66;5016974;28;20057;-74
2021/10/02 11:06:01;;;;;;;14.30;9.55;;;;;;;22.00;45.63;100311.81;5023990;28;20056;-73
2021/10/02 11:09:02;;;;;;;16.77;10.77;;;;;;;21.72;45.68;100309.75;5024002;28;20048;-73
2021/10/02 11:11:59;;;;;;;15.85;11.57;;;;;;;21.74;45.49;100305.03;5021881;28;20049;-80
2021/10/02 11:15:01;;;;;;;15.65;11.18;;;;;;;21.61;45.08;100294.91;5017058;28;20045;-74
2021/10/02 11:17:37;;;;;;;16.25;12.23;;;;;;;21.46;45.66;100300.22;5021679;28;20050;-72
2021/10/02 11:20:32;;;;;;;14.88;11.70;;;;;;;21.52;45.41;100301.38;5019838;28;20053;-75
2021/10/02 11:23:50;;;;;;;16.17;10.85;;;;;;;21.79;45.03;100288.34;5016677;28;20045;-74
2021/10/02 11:26:22;;;;;;;14.80;11.40;;;;;;;21.79;44.59;100288.34;5019859;28;20935;-72
2021/10/02 11:28:53;;;;;;;13.27;10.30;;;;;;;21.79;44.58;100288.34;5020414;28;20099;-73
2021/10/02 11:31:22;;;;;;;15.10;12.15;;;;;;;22.10;43.83;100285.50;5012540;28;20042;-74
2021/10/02 11:33:51;;;;;;;15.77;10.57;;;;;;;22.12;43.63;100292.34;5021941;28;20668;-74
2021/10/02 11:36:50;;;;;;;16.17;12.95;;;;;;;22.22;43.65;100294.78;5014028;28;20478;-74
2021/10/02 11:39:20;;;;;;;14.63;9.82;;;;;;;22.04;43.62;100292.47;5017069;28;20075;-72
2021/10/02 11:41:50;;;;;;;13.95;11.05;;;;;;;21.85;44.13;100295.69;5019772;28;20081;-76
2021/10/02 11:44:39;;;;;;;13.50;10.55;;;;;;;22.02;43.73;100290.97;5021872;28;20760;-74
2021/10/02 11:47:32;;;;;;;14.00;10.15;;;;;;;22.11;43.26;100303.28;5014249;28;20049;-74
2021/10/02 11:50:31;;;;;;;14.70;10.60;;;;;;;22.37;43.28;100293.97;5020195;28;20591;-74
2021/10/02 11:53:21;;;;;;;12.50;9.98;;;;;;;22.40;42.95;100294.41;5015998;28;20068;-73
2021/10/02 11:55:56;;;;;;;14.65;10.50;;;;;;;22.38;42.91;100290.22;5019980;28;20045;-74
2021/10/02 11:58:42;;;;;;;13.30;9.93;;;;;;;22.26;43.27;100296.09;5022067;28;20049;-76
2021/10/02 12:01:17;;;;;;;13.73;10.23;;;;;;;22.10;43.14;100301.63;5016548;28;20300;-74
2021/10/02 12:03:44;;;;;;;13.32;10.23;;;;;;;22.09;43.16;100299.94;5020462;28;20049;-74
2021/10/02 12:06:11;;;;;;;16.65;10.88;;;;;;;22.08;43.17;100292.91;5020491;28;20046;-77
2021/10/02 12:08:40;;;;;;;17.27;11.07;;;;;;;22.24;43.10;100289.22;5020369;28;20057;-80
2021/10/02 12:11:09;;;;;;;17.17;12.07;;;;;;;22.53;43.00;100286.50;5017968;28;20736;-77
2021/10/02 12:13:39;;;;;;;11.75;9.98;;;;;;;22.82;42.05;100284.75;5020901;28;20471;-75
2021/10/02 12:16:08;;;;;;;14.13;10.32;;;;;;;22.75;41.92;100281.16;5022627;28;20057;-73
2021/10/02 12:18:50;;;;;;;13.30;10.93;;;;;;;22.63;42.36;100272.72;5019381;28;20052;-76